createdAt,value
2023-03-22T00:02:16.573Z,63.83
2023-03-22T00:04:44.675Z,63.89
2023-03-22T00:07:12.846Z,63.82
2023-03-22T00:09:41.063Z,63.82
2023-03-22T00:12:09.257Z,63.88
2023-03-22T00:14:37.446Z,63.96
2023-03-22T00:17:05.953Z,63.94
2023-03-22T00:19:34.236Z,63.89
2023-03-22T00:22:03.696Z,63.89
2023-03-22T00:24:32.256Z,63.82
2023-03-22T00:27:01.114Z,63.85
2023-03-22T00:29:29.417Z,64.05
2023-03-22T00:31:58.500Z,64.11
2023-03-22T00:34:32.478Z,64.03
2023-03-22T00:37:01.500Z,64.02
2023-03-22T00:39:30.404Z,64.12
2023-03-22T00:41:58.475Z,64.14
2023-03-22T00:44:27.082Z,64.16
2023-03-22T00:46:55.551Z,64.17
2023-03-22T00:49:23.649Z,64.12
2023-03-22T00:51:51.797Z,64.18
2023-03-22T00:54:19.956Z,64.21
2023-03-22T00:56:49.998Z,64.22
2023-03-22T00:59:18.566Z,64.15
2023-03-22T01:01:47.217Z,64.29
2023-03-22T01:04:18.334Z,64.23
2023-03-22T01:06:47.356Z,64.23
2023-03-22T01:09:15.735Z,64.37
2023-03-22T01:11:45.806Z,64.40
2023-03-22T01:14:16.919Z,64.27
2023-03-22T01:16:45.510Z,64.44
2023-03-22T01:19:13.969Z,64.52
2023-03-22T01:21:42.232Z,64.38
2023-03-22T01:24:10.708Z,64.41
2023-03-22T01:26:39.107Z,64.56
2023-03-22T01:29:07.172Z,64.56
2023-03-22T01:31:35.370Z,64.55
2023-03-22T01:34:04.048Z,64.51
2023-03-22T01:36:33.012Z,64.41
2023-03-22T01:39:01.116Z,64.53
2023-03-22T01:41:34.911Z,64.47
2023-03-22T01:44:13.403Z,64.64
2023-03-22T01:46:43.362Z,64.63
2023-03-22T01:49:24.452Z,64.74
2023-03-22T01:51:55.363Z,64.92
2023-03-22T01:54:50.596Z,64.76
2023-03-22T01:57:29.435Z,64.88
2023-03-22T01:59:58.393Z,65.01
2023-03-22T02:02:44.050Z,65.03
2023-03-22T02:05:22.526Z,65.13
2023-03-22T02:07:53.149Z,65.20
2023-03-22T02:10:26.422Z,65.18
2023-03-22T02:13:24.487Z,65.30
2023-03-22T02:16:16.311Z,65.26
2023-03-22T02:19:19.600Z,65.44
2023-03-22T02:22:16.610Z,65.34
2023-03-22T02:25:09.822Z,65.22
2023-03-22T02:28:15.157Z,65.35
2023-03-22T02:31:00.205Z,65.51
2023-03-22T02:33:57.479Z,65.48
2023-03-22T02:36:59.710Z,65.54
2023-03-22T02:39:31.807Z,65.54
2023-03-22T02:42:08.991Z,65.52
2023-03-22T02:44:46.909Z,65.48
2023-03-22T02:47:39.900Z,65.54
2023-03-22T02:50:14.405Z,65.60
2023-03-22T02:52:54.085Z,65.58
2023-03-22T02:55:59.465Z,65.71
2023-03-22T02:58:33.722Z,65.71
2023-03-22T03:01:07.383Z,65.70
2023-03-22T03:03:38.067Z,65.74
2023-03-22T03:06:13.658Z,65.83
2023-03-22T03:08:43.597Z,65.81
2023-03-22T03:11:12.556Z,65.73
2023-03-22T03:13:40.703Z,65.98
2023-03-22T03:16:17.594Z,65.99
2023-03-22T03:19:07.961Z,65.93
2023-03-22T03:21:58.868Z,66.06
2023-03-22T03:24:33.546Z,66.13
2023-03-22T03:27:14.673Z,66.14
2023-03-22T03:29:51.488Z,66.29
2023-03-22T03:32:26.902Z,66.34
2023-03-22T03:35:18.097Z,66.41
2023-03-22T03:38:01.690Z,66.35
2023-03-22T03:40:37.831Z,66.62
2023-03-22T03:43:07.194Z,66.56
2023-03-22T03:45:37.532Z,66.66
2023-03-22T03:48:12.025Z,66.79
2023-03-22T03:50:40.556Z,66.82
2023-03-22T03:53:10.081Z,66.99
2023-03-22T03:55:38.194Z,66.94
2023-03-22T03:58:09.123Z,67.13
2023-03-22T04:00:38.727Z,67.19
2023-03-22T04:03:30.385Z,67.22
2023-03-22T04:06:04.740Z,67.49
2023-03-22T04:08:36.269Z,67.43
2023-03-22T04:11:05.206Z,67.39
2023-03-22T04:13:33.877Z,67.59
2023-03-22T04:16:04.288Z,67.59
2023-03-22T04:18:35.316Z,67.74
2023-03-22T04:21:05.805Z,67.85
2023-03-22T04:23:41.146Z,67.78
2023-03-22T04:26:09.454Z,67.96
2023-03-22T04:28:46.003Z,67.93
2023-03-22T04:31:14.128Z,68.10
2023-03-22T04:33:54.947Z,68.29
2023-03-22T04:36:45.268Z,68.23
2023-03-22T04:39:22.081Z,68.30
2023-03-22T04:41:58.697Z,68.36
2023-03-22T04:44:27.780Z,68.56
2023-03-22T04:46:56.003Z,68.51
2023-03-22T04:49:24.199Z,68.48
2023-03-22T04:51:53.090Z,68.51
2023-03-22T04:54:27.667Z,68.58
2023-03-22T04:56:56.593Z,68.75
2023-03-22T04:59:25.244Z,68.74
2023-03-22T05:01:53.614Z,68.89
2023-03-22T05:04:27.334Z,68.98
2023-03-22T05:07:01.779Z,69.02
2023-03-22T05:09:38.172Z,69.03
2023-03-22T05:12:06.983Z,69.09
2023-03-22T05:14:42.780Z,68.99
2023-03-22T05:17:12.020Z,69.06
2023-03-22T05:19:40.802Z,69.09
2023-03-22T05:22:08.873Z,69.27
2023-03-22T05:24:43.052Z,69.32
2023-03-22T05:27:15.595Z,69.43
2023-03-22T05:29:46.904Z,69.44
2023-03-22T05:32:25.712Z,69.51
2023-03-22T05:34:56.334Z,69.47
2023-03-22T05:37:32.825Z,69.44
2023-03-22T05:40:01.880Z,69.56
2023-03-22T05:42:37.586Z,69.55
2023-03-22T05:45:14.696Z,69.63
2023-03-22T05:47:43.921Z,69.72
2023-03-22T05:50:18.176Z,69.64
2023-03-22T05:52:46.852Z,69.69
2023-03-22T05:55:23.337Z,69.80
2023-03-22T05:57:56.824Z,69.74
2023-03-22T06:00:25.864Z,69.76
2023-03-22T06:03:26.510Z,69.90
2023-03-22T06:06:10.834Z,70.05
2023-03-22T06:08:47.616Z,70.03
2023-03-22T06:11:15.707Z,70.01
2023-03-22T06:13:43.801Z,69.90
2023-03-22T06:16:12.272Z,70.00
2023-03-22T06:18:41.037Z,70.07
2023-03-22T06:21:12.102Z,70.13
2023-03-22T06:23:40.317Z,70.22
2023-03-22T06:26:11.543Z,70.21
2023-03-22T06:28:41.395Z,70.22
2023-03-22T06:31:10.856Z,70.29
2023-03-22T06:33:45.715Z,70.25
2023-03-22T06:36:49.215Z,70.31
2023-03-22T06:39:25.550Z,70.37
2023-03-22T06:41:54.428Z,70.34
2023-03-22T06:44:22.844Z,70.32
2023-03-22T06:46:54.177Z,70.36
2023-03-22T06:49:42.592Z,70.43
2023-03-22T06:52:15.483Z,70.52
2023-03-22T06:54:43.956Z,70.47
2023-03-22T06:57:12.309Z,70.35
2023-03-22T06:59:40.438Z,70.56
2023-03-22T07:02:11.974Z,70.63
2023-03-22T07:04:42.811Z,70.57
2023-03-22T07:07:11.645Z,70.50
2023-03-22T07:09:40.393Z,70.58
2023-03-22T07:12:09.970Z,70.55
2023-03-22T07:14:38.669Z,70.59
2023-03-22T07:17:25.385Z,70.79
2023-03-22T07:19:54.030Z,70.60
2023-03-22T07:22:24.932Z,70.78
2023-03-22T07:24:57.742Z,70.74
2023-03-22T07:27:27.574Z,70.69
2023-03-22T07:29:56.328Z,70.75
2023-03-22T07:32:24.570Z,70.70
2023-03-22T07:35:07.860Z,70.84
2023-03-22T07:37:36.296Z,70.72
2023-03-22T07:40:07.039Z,70.75
2023-03-22T07:42:35.600Z,70.77
2023-03-22T07:45:22.828Z,70.73
2023-03-22T07:48:12.013Z,70.72
2023-03-22T07:50:56.544Z,70.77
2023-03-22T07:53:25.907Z,70.78
2023-03-22T07:55:54.296Z,70.69
2023-03-22T07:58:22.578Z,70.69
2023-03-22T08:00:50.799Z,70.76
2023-03-22T08:03:37.867Z,70.68
2023-03-22T08:06:16.525Z,70.69
2023-03-22T08:08:44.688Z,70.68
2023-03-22T08:11:12.855Z,70.75
2023-03-22T08:13:41.213Z,70.74
2023-03-22T08:16:12.706Z,70.77
2023-03-22T08:18:43.027Z,70.89
2023-03-22T08:21:12.780Z,70.72
2023-03-22T08:23:42.518Z,70.66
2023-03-22T08:26:33.472Z,70.71
2023-03-22T08:29:09.704Z,70.67
2023-03-22T08:31:38.405Z,70.67
2023-03-22T08:34:06.601Z,70.67
2023-03-22T08:36:34.850Z,70.71
2023-03-22T08:39:05.501Z,70.72
2023-03-22T08:41:41.506Z,70.65
2023-03-22T08:44:10.239Z,70.60
2023-03-22T08:46:38.552Z,70.66
2023-03-22T08:49:07.400Z,70.61
2023-03-22T08:51:48.360Z,70.58
2023-03-22T08:54:19.704Z,70.47
2023-03-22T08:56:54.626Z,70.48
2023-03-22T08:59:52.360Z,70.51
2023-03-22T09:02:28.203Z,70.58
2023-03-22T09:04:56.890Z,70.37
2023-03-22T09:07:25.432Z,70.30
2023-03-22T09:10:20.013Z,70.31
2023-03-22T09:12:49.687Z,70.38
2023-03-22T09:15:18.050Z,70.39
2023-03-22T09:17:48.912Z,70.34
2023-03-22T09:20:17.366Z,70.25
2023-03-22T09:22:47.442Z,70.23
2023-03-22T09:25:20.802Z,70.22
2023-03-22T09:27:49.845Z,70.16
2023-03-22T09:30:18.004Z,70.06
2023-03-22T09:32:46.181Z,70.07
2023-03-22T09:35:16.515Z,69.95
2023-03-22T09:37:59.020Z,69.90
2023-03-22T09:40:31.478Z,69.99
2023-03-22T09:43:04.779Z,69.85
2023-03-22T09:45:43.041Z,69.86
2023-03-22T09:48:16.908Z,69.88
2023-03-22T09:50:48.717Z,69.79
2023-03-22T09:53:18.675Z,69.65
2023-03-22T09:55:55.873Z,69.60
2023-03-22T09:58:23.928Z,69.51
2023-03-22T10:00:56.941Z,69.46
2023-03-22T10:03:45.751Z,69.37
2023-03-22T10:06:23.027Z,69.32
2023-03-22T10:09:10.120Z,69.29
2023-03-22T10:11:51.656Z,69.13
2023-03-22T10:14:27.175Z,69.02
2023-03-22T10:16:58.262Z,68.96
2023-03-22T10:19:33.613Z,68.90
2023-03-22T10:22:04.117Z,68.92
2023-03-22T10:24:35.746Z,68.84
2023-03-22T10:27:04.848Z,68.85
2023-03-22T10:29:38.113Z,68.72
2023-03-22T10:32:16.885Z,68.59
2023-03-22T10:34:46.611Z,68.30
2023-03-22T10:37:22.442Z,68.21
2023-03-22T10:39:56.125Z,68.16
2023-03-22T10:42:27.915Z,68.01
2023-03-22T10:45:13.652Z,67.99
2023-03-22T10:47:48.807Z,67.83
2023-03-22T10:50:39.405Z,67.78
2023-03-22T10:53:43.293Z,67.67
2023-03-22T10:56:13.985Z,67.69
2023-03-22T10:58:42.335Z,67.61
2023-03-22T11:01:13.535Z,67.54
2023-03-22T11:03:44.322Z,67.36
2023-03-22T11:06:13.605Z,67.25
2023-03-22T11:08:47.895Z,67.18
2023-03-22T11:11:36.381Z,67.08
2023-03-22T11:14:16.065Z,67.06
2023-03-22T11:17:02.119Z,66.95
2023-03-22T11:19:37.376Z,66.84
2023-03-22T11:22:25.722Z,66.73
2023-03-22T11:24:56.446Z,66.63
2023-03-22T11:27:28.772Z,66.61
2023-03-22T11:30:08.040Z,66.38
2023-03-22T11:32:38.836Z,66.35
2023-03-22T11:35:15.873Z,66.31
2023-03-22T11:37:46.833Z,66.22
2023-03-22T11:40:18.415Z,66.01
2023-03-22T11:42:47.857Z,66.00
2023-03-22T11:45:31.197Z,65.88
2023-03-22T11:48:07.685Z,65.81
2023-03-22T11:50:38.502Z,65.58
2023-03-22T11:53:12.101Z,65.40
2023-03-22T11:55:42.664Z,65.37
2023-03-22T11:58:26.382Z,65.42
2023-03-22T12:01:01.527Z,65.31
2023-03-22T12:03:39.880Z,65.35
2023-03-22T12:06:22.176Z,65.35
2023-03-22T12:08:56.737Z,65.32
2023-03-22T12:11:34.724Z,65.18
2023-03-22T12:14:05.498Z,65.08
2023-03-22T12:16:45.803Z,64.96
2023-03-22T12:19:23.632Z,64.90
2023-03-22T12:21:52.896Z,64.90
2023-03-22T12:24:31.051Z,64.74
2023-03-22T12:27:10.301Z,64.51
2023-03-22T12:29:54.219Z,64.38
2023-03-22T12:32:28.600Z,64.28
2023-03-22T12:35:09.268Z,64.19
2023-03-22T12:37:48.337Z,64.01
2023-03-22T12:40:32.243Z,64.01
2023-03-22T12:43:25.954Z,64.00
2023-03-22T12:45:59.746Z,64.04
2023-03-22T12:48:28.016Z,63.86
2023-03-22T12:51:06.341Z,63.93
2023-03-22T12:53:43.010Z,63.96
2023-03-22T12:56:26.836Z,63.97
2023-03-22T12:59:01.530Z,63.95
2023-03-22T13:01:39.867Z,63.86
2023-03-22T13:04:31.773Z,63.97
2023-03-22T13:07:20.453Z,64.04
2023-03-22T13:09:50.754Z,63.98
2023-03-22T13:12:18.842Z,63.94
2023-03-22T13:14:53.200Z,63.95
2023-03-22T13:17:24.609Z,63.97
2023-03-22T13:20:21.863Z,63.92
2023-03-22T13:22:50.152Z,64.08
2023-03-22T13:25:19.286Z,63.99
2023-03-22T13:28:21.042Z,64.00
2023-03-22T13:30:58.649Z,64.01
2023-03-22T13:33:28.026Z,64.09
2023-03-22T13:35:59.500Z,63.97
2023-03-22T13:38:30.456Z,64.08
2023-03-22T13:41:04.725Z,63.95
2023-03-22T13:43:39.038Z,63.98
2023-03-22T13:46:22.210Z,64.04
2023-03-22T13:48:53.221Z,63.96
2023-03-22T13:51:29.790Z,64.11
2023-03-22T13:54:18.120Z,64.04
2023-03-22T13:57:01.509Z,63.98
2023-03-22T14:00:09.571Z,63.92
2023-03-22T14:02:42.242Z,64.13
2023-03-22T14:05:18.902Z,64.03
2023-03-22T14:07:52.303Z,63.90
2023-03-22T14:10:22.704Z,63.92
2023-03-22T14:12:55.777Z,63.98
2023-03-22T14:15:28.860Z,64.03
2023-03-22T14:17:57.062Z,63.98
2023-03-22T14:20:27.129Z,64.00
